Data for 06/22/2014

Time Sea-Level Adjusted Pressure Absolute Pressure Temperature Relative Humidity Dew Point   
(mb) (inHg) (mb) (inHg) (C) (F) (%) (C) (F)
00:05 1019 30.09 848 25.04 14.9 58.7 51 4.8 40.7
00:10 1019 30.09 848 25.04 14.8 58.6 51 4.9 40.8
00:15 1019 30.09 848 25.04 14.7 58.5 51 4.7 40.5
00:20 1019 30.09 848 25.04 14.7 58.5 51 4.6 40.3
00:25 1019 30.09 848 25.04 14.7 58.5 50 4.5 40.2
00:30 1019 30.09 848 25.04 14.7 58.5 50 4.6 40.3
00:35 1019 30.09 848 25.04 14.7 58.4 51 4.7 40.5
00:40 1019 30.09 848 25.04 14.6 58.3 51 4.6 40.3
00:45 1019 30.09 849 25.07 14.6 58.3 51 4.8 40.6
00:50 1019 30.09 849 25.07 14.5 58.1 51 4.6 40.3
00:55 1019 30.09 849 25.07 14.6 58.2 51 4.7 40.5
01:00 1019 30.09 849 25.07 14.5 58 51 4.6 40.3
01:05 1019 30.09 849 25.07 14.5 58.1 51 4.7 40.4
01:10 1019 30.09 848 25.04 14.5 58 51 4.5 40.1
01:15 1019 30.09 849 25.07 14.4 58 51 4.6 40.2
01:20 1019 30.09 848 25.04 14.4 57.9 51 4.5 40.2
01:25 1019 30.09 848 25.04 14.3 57.8 52 4.6 40.2
01:30 1019 30.09 848 25.04 14.2 57.6 52 4.5 40.1
01:35 1019 30.09 848 25.04 14.1 57.4 52 4.6 40.2
01:40 1019 30.09 848 25.04 14.1 57.3 53 4.6 40.2
01:45 1019 30.09 848 25.04 14 57.2 53 4.6 40.2
01:50 1019 30.09 848 25.04 13.9 57.1 53 4.6 40.4
01:55 1019 30.09 848 25.04 13.9 56.9 54 4.8 40.6
02:00 1019 30.09 848 25.04 13.7 56.6 55 4.8 40.6
02:05 1019 30.09 848 25.04 13.6 56.5 55 4.7 40.5
02:10 1019 30.09 848 25.04 13.6 56.4 54 4.4 40
02:15 1019 30.09 848 25.04 13.6 56.4 54 4.5 40.2
02:20 1019 30.09 848 25.04 13.5 56.3 53 4.2 39.6
02:25 1019 30.09 848 25.04 13.5 56.4 53 4.2 39.6
02:30 1019 30.09 848 25.04 13.5 56.3 53 4.3 39.7
02:35 1019 30.09 848 25.04 13.4 56.2 54 4.4 40
02:40 1019 30.09 848 25.04 13.3 55.9 55 4.6 40.2
02:45 1019 30.09 848 25.04 13.3 55.9 55 4.4 40
02:50 1019 30.09 848 25.04 13.3 56 54 4.2 39.6
02:55 1019 30.09 848 25.04 13.4 56.2 53 4.1 39.4
03:00 1019 30.09 848 25.04 13.4 56.1 53 4 39.2
03:05 1019 30.09 848 25.04 13.4 56.2 53 4.1 39.4
03:10 1019 30.09 848 25.04 13.4 56.1 53 4 39.3
03:15 1019 30.09 848 25.04 13.4 56.1 53 4 39.1
03:20 1019 30.09 848 25.04 13.4 56.1 52 3.9 39
03:25 1019 30.09 848 25.04 13.3 56 52 3.8 38.8
03:30 1019 30.09 848 25.04 13.3 56 52 3.6 38.6
03:35 1019 30.09 848 25.04 13.3 56 52 3.6 38.5
03:40 1019 30.09 849 25.07 13.3 56 51 3.5 38.2
03:45 1019 30.09 849 25.07 13.3 56 52 3.6 38.5
03:50 1019 30.09 849 25.07 13.3 55.9 52 3.7 38.6
03:55 1019 30.09 849 25.07 13.3 55.9 52 3.6 38.4
04:00 1019 30.09 849 25.07 13.2 55.8 52 3.6 38.5
04:05 1019 30.09 849 25.07 13.1 55.7 52 3.7 38.6
04:10 1019 30.09 849 25.07 13.1 55.6 53 3.8 38.8
04:15 1019 30.09 849 25.07 13 55.4 53 3.8 38.8
04:20 1019 30.09 849 25.07 13 55.3 54 3.9 38.9
04:25 1019 30.09 849 25.07 12.9 55.3 54 3.9 39
04:30 1020 30.12 849 25.07 12.9 55.2 55 4 39.2
04:35 1020 30.12 849 25.07 12.8 55.1 56 4.4 39.8
04:40 1020 30.12 849 25.07 12.7 54.8 57 4.5 40.1
04:45 1020 30.12 849 25.07 12.6 54.7 58 4.7 40.5
04:50 1020 30.12 849 25.07 12.5 54.6 59 4.8 40.6
04:55 1020 30.12 849 25.07 12.5 54.4 60 5 41
05:00 1020 30.12 849 25.07 12.4 54.2 61 5.1 41.1
05:05 1020 30.12 849 25.07 12.3 54.2 61 5.1 41.1
05:10 1020 30.12 849 25.07 12.3 54.1 62 5.2 41.4
05:15 1020 30.12 849 25.07 12.1 53.9 63 5.3 41.5
05:20 1020 30.12 849 25.07 12.1 53.7 63 5.3 41.5
05:25 1020 30.12 849 25.07 12 53.6 64 5.4 41.7
05:30 1020 30.12 849 25.07 12 53.5 64 5.4 41.6
05:35 1020 30.12 850 25.1 12 53.5 64 5.4 41.7
05:40 1020 30.12 850 25.1 12 53.6 63 5.3 41.6
05:45 1020 30.12 850 25.1 12.1 53.7 63 5.3 41.6
05:50 1020 30.12 850 25.1 12 53.5 65 5.6 42
05:55 1020 30.12 850 25.1 11.9 53.5 65 5.6 42
06:00 1020 30.12 850 25.1 12 53.5 65 5.5 42
06:05 1020 30.12 850 25.1 12 53.6 65 5.6 42
06:10 1021 30.15 850 25.1 12 53.7 64 5.5 41.8
06:15 1021 30.15 850 25.1 12.1 53.7 64 5.5 41.9
06:20 1021 30.15 850 25.1 12 53.6 66 5.9 42.7
06:25 1021 30.15 850 25.1 11.8 53.3 68 6.1 43.1
06:30 1021 30.15 850 25.1 11.7 53.1 67 5.8 42.5
06:35 1021 30.15 850 25.1 11.5 52.8 70 6.3 43.4
06:40 1021 30.15 850 25.1 11.4 52.5 72 6.6 43.8
06:45 1021 30.15 850 25.1 11.2 52.1 73 6.6 43.9
06:50 1021 30.15 850 25.1 11.1 52 74 6.6 43.9
06:55 1021 30.15 850 25.1 11.1 51.9 72 6.2 43.2
07:00 1021 30.15 850 25.1 11 51.8 74 6.7 44
07:05 1021 30.15 850 25.1 11 51.7 73 6.4 43.4
07:10 1021 30.15 850 25.1 10.9 51.6 76 6.8 44.2
07:15 1021 30.15 850 25.1 10.8 51.5 75 6.7 44
07:20 1021 30.15 850 25.1 10.7 51.3 76 6.8 44.2
07:25 1021 30.15 850 25.1 10.6 51.1 78 6.9 44.4
07:30 1021 30.15 850 25.1 10.6 51 79 7.2 44.9
07:35 1021 30.15 850 25.1 10.5 50.8 79 7 44.6
07:40 1021 30.15 850 25.1 10.4 50.7 80 7.1 44.8
07:45 1021 30.15 850 25.1 10.3 50.5 82 7.3 45.2
07:50 1021 30.15 850 25.1 10.2 50.3 83 7.5 45.4
07:55 1021 30.15 850 25.1 10.1 50.2 84 7.6 45.7
08:00 1021 30.15 850 25.1 10.2 50.3 83 7.5 45.4
08:05 1021 30.15 851 25.13 10.2 50.3 85 7.8 46
08:10 1021 30.15 851 25.13 10.2 50.3 87 8.1 46.6
08:15 1021 30.15 851 25.13 10.2 50.4 87 8.2 46.7
08:20 1021 30.15 851 25.13 10.4 50.7 84 7.9 46.1
08:25 1021 30.15 851 25.13 10.5 50.9 83 7.7 45.8
08:30 1021 30.15 851 25.13 10.7 51.2 84 8.2 46.7
08:35 1021 30.15 850 25.1 10.7 51.2 82 7.8 46.1
08:40 1021 30.15 850 25.1 10.7 51.2 85 8.3 47
08:45 1021 30.15 850 25.1 10.7 51.3 83 8 46.4
08:50 1021 30.15 850 25.1 10.8 51.4 84 8.1 46.6
08:55 1021 30.15 850 25.1 10.7 51.3 82 7.7 45.9
09:00 1021 30.15 850 25.1 10.7 51.3 82 7.8 46.1
09:05 1021 30.15 850 25.1 10.8 51.4 84 8.2 46.7
09:10 1021 30.15 850 25.1 10.7 51.3 84 8.2 46.7
09:15 1021 30.15 850 25.1 10.7 51.3 83 7.9 46.3
09:20 1021 30.15 850 25.1 10.8 51.5 84 8.2 46.8
09:25 1021 30.15 850 25.1 10.7 51.3 84 8.1 46.5
09:30 1021 30.15 850 25.1 10.9 51.6 82 7.9 46.3
09:35 1021 30.15 850 25.1 11.1 51.9 79 7.6 45.7
09:40 1021 30.15 850 25.1 10.9 51.6 82 7.9 46.3
09:45 1021 30.15 850 25.1 10.8 51.5 80 7.5 45.5
09:50 1021 30.15 850 25.1 10.9 51.6 76 6.9 44.5
09:55 1021 30.15 850 25.1 10.9 51.7 78 7.3 45.1
10:00 1021 30.15 850 25.1 11 51.8 76 7 44.5
10:05 1021 30.15 850 25.1 11 51.9 78 7.4 45.3
10:10 1021 30.15 850 25.1 11 51.7 81 7.8 46
10:15 1021 30.15 850 25.1 10.9 51.7 78 7.2 45
10:20 1021 30.15 850 25.1 11.1 52 78 7.5 45.5
10:25 1021 30.15 850 25.1 11.1 51.9 79 7.5 45.6
10:30 1021 30.15 850 25.1 11.1 52 79 7.7 45.9
10:35 1021 30.15 850 25.1 11.2 52.1 77 7.3 45.2
10:40 1021 30.15 850 25.1 11.3 52.3 80 8 46.4
10:45 1021 30.15 850 25.1 11.2 52.1 80 8 46.3
10:50 1021 30.15 850 25.1 11.2 52.1 82 8.3 46.9
10:55 1021 30.15 850 25.1 11.2 52.2 82 8.3 47
11:00 1021 30.15 850 25.1 11.4 52.5 80 8.1 46.6
11:05 1021 30.15 851 25.13 11.5 52.8 82 8.6 47.4
11:10 1021 30.15 851 25.13 11.5 52.7 85 9.1 48.4
11:15 1021 30.15 851 25.13 11.5 52.6 87 9.3 48.8
11:20 1022 30.18 851 25.13 11.5 52.7 86 9.2 48.6
11:25 1022 30.18 851 25.13 11.4 52.6 86 9.3 48.7
11:30 1022 30.18 851 25.13 11.5 52.7 87 9.4 49
11:35 1022 30.18 851 25.13 11.5 52.7 87 9.4 49
11:40 1022 30.18 851 25.13 11.5 52.8 87 9.5 49.1
11:45 1022 30.18 851 25.13 11.6 52.8 86 9.4 48.9
11:50 1022 30.18 851 25.13 11.5 52.8 86 9.3 48.8
11:55 1022 30.18 851 25.13 11.5 52.7 85 9.1 48.4
12:00 1022 30.18 851 25.13 11.5 52.7 86 9.3 48.7
12:05 1022 30.18 851 25.13 11.4 52.6 87 9.4 48.9
12:10 1022 30.18 851 25.13 11.2 52.2 90 9.6 49.3
12:15 1022 30.18 851 25.13 11 51.7 91 9.5 49.1
12:20 1022 30.18 851 25.13 10.8 51.5 91 9.5 49.1
12:25 1022 30.18 851 25.13 10.8 51.5 92 9.5 49.2
12:30 1022 30.18 851 25.13 10.9 51.6 89 9.1 48.4
12:35 1022 30.18 851 25.13 11 51.7 90 9.4 49
12:40 1022 30.18 851 25.13 11 51.9 89 9.3 48.7
12:45 1022 30.18 851 25.13 11.1 52 89 9.4 48.9
12:50 1022 30.18 851 25.13 11.2 52.2 87 9.2 48.5
12:55 1022 30.18 851 25.13 11.3 52.3 87 9.3 48.7
13:00 1022 30.18 851 25.13 11.5 52.7 85 9.2 48.5
13:05 1022 30.18 851 25.13 11.7 53.1 85 9.3 48.8
13:10 1022 30.18 851 25.13 12 53.5 86 9.7 49.5
13:15 1022 30.18 851 25.13 12.4 54.4 86 10.2 50.3
13:20 1022 30.18 851 25.13 12.6 54.7 84 10 50
13:25 1022 30.18 851 25.13 12.6 54.6 80 9.3 48.7
13:30 1022 30.18 851 25.13 12.3 54.2 79 8.8 47.8
13:35 1022 30.18 851 25.13 12.3 54.1 80 8.9 47.9
13:40 1022 30.18 851 25.13 12.6 54.6 80 9.3 48.7
13:45 1022 30.18 851 25.13 12.5 54.5 74 8 46.4
13:50 1022 30.18 851 25.13 12.3 54.2 72 7.4 45.4
13:55 1022 30.18 851 25.13 12.4 54.3 74 7.8 46.1
14:00 1022 30.18 851 25.13 12.4 54.4 72 7.5 45.6
14:05 1022 30.18 851 25.13 12.5 54.4 73 7.8 46
14:10 1022 30.18 851 25.13 12.5 54.6 71 7.5 45.5
14:15 1022 30.18 851 25.13 12.7 54.8 64 6.1 43
14:20 1022 30.18 851 25.13 12.8 55 64 6.1 43.1
14:25 1022 30.18 851 25.13 12.9 55.1 66 6.7 44.1
14:30 1021 30.15 851 25.13 13.2 55.7 66 7 44.6
14:35 1021 30.15 851 25.13 13.7 56.7 64 7 44.7
14:40 1021 30.15 851 25.13 13.7 56.6 67 7.7 45.9
14:45 1021 30.15 851 25.13 13.9 56.9 65 7.5 45.4
14:50 1021 30.15 851 25.13 14.2 57.6 64 7.5 45.5
14:55 1021 30.15 851 25.13 14.3 57.8 62 7.1 44.8
15:00 1021 30.15 851 25.13 14.4 58 61 7.1 44.7
15:05 1021 30.15 851 25.13 14.7 58.5 60 7 44.7
15:10 1021 30.15 851 25.13 15 58.9 62 7.8 46
15:15 1021 30.15 850 25.1 15.1 59.2 58 7.1 44.8
15:20 1021 30.15 851 25.13 15.5 59.9 59 7.5 45.5
15:25 1021 30.15 851 25.13 15.7 60.3 56 7 44.6
15:30 1021 30.15 851 25.13 15.7 60.2 55 6.8 44.2
15:35 1021 30.15 851 25.13 15.8 60.5 56 7.3 45.1
15:40 1021 30.15 851 25.13 15.5 59.9 57 7 44.6
15:45 1021 30.15 851 25.13 15.8 60.5 52 6.1 43.1
15:50 1021 30.15 850 25.1 15.6 60.1 54 6.4 43.5
15:55 1021 30.15 850 25.1 15.7 60.2 54 6.5 43.6
16:00 1021 30.15 850 25.1 15.9 60.6 52 6.1 43.1
16:05 1021 30.15 850 25.1 16.2 61.2 50 5.8 42.4
16:10 1021 30.15 850 25.1 16.5 61.8 49 5.9 42.6
16:15 1021 30.15 850 25.1 16.4 61.6 50 6.1 43
16:20 1021 30.15 850 25.1 16.3 61.3 50 6.1 43
16:25 1021 30.15 850 25.1 16.1 60.9 52 6.4 43.5
16:30 1021 30.15 851 25.13 15.6 60.1 55 6.7 44.1
16:35 1021 30.15 851 25.13 15.7 60.3 52 5.9 42.7
16:40 1022 30.18 851 25.13 16 60.7 52 6.2 43.2
16:45 1021 30.15 851 25.13 15.8 60.5 50 5.6 42.1
16:50 1021 30.15 851 25.13 15.9 60.6 50 5.5 42
16:55 1021 30.15 851 25.13 15.7 60.3 51 5.7 42.3
17:00 1021 30.15 851 25.13 15.6 60 51 5.4 41.8
17:05 1021 30.15 851 25.13 15.6 60.1 49 5 40.9
17:10 1021 30.15 851 25.13 15.7 60.3 48 4.8 40.6
17:15 1021 30.15 851 25.13 15.8 60.5 46 4.4 40
17:20 1021 30.15 851 25.13 15.8 60.5 47 4.6 40.3
17:25 1021 30.15 851 25.13 15.6 60.2 49 5.2 41.3
17:30 1021 30.15 851 25.13 15.2 59.4 51 5.3 41.5
17:35 1021 30.15 851 25.13 15.2 59.4 53 5.7 42.2
17:40 1022 30.18 851 25.13 15.1 59.2 52 5.5 41.9
17:45 1022 30.18 851 25.13 15.1 59.2 55 6.3 43.3
17:50 1022 30.18 851 25.13 14.9 58.8 56 6.3 43.4
17:55 1022 30.18 851 25.13 14.7 58.4 57 6.2 43.2
18:00 1022 30.18 851 25.13 14.7 58.5 57 6.3 43.3
18:05 1022 30.18 851 25.13 14.9 58.9 55 6.1 43
18:10 1022 30.18 851 25.13 14.9 58.9 54 5.8 42.5
18:15 1022 30.18 851 25.13 14.8 58.7 54 5.8 42.5
18:20 1022 30.18 851 25.13 14.7 58.5 55 5.9 42.6
18:25 1022 30.18 851 25.13 14.6 58.2 57 6.2 43.1
18:30 1022 30.18 851 25.13 14.5 58.1 57 6.2 43.1
18:35 1022 30.18 851 25.13 14.4 57.9 57 6.2 43.1
18:40 1022 30.18 851 25.13 14.3 57.7 58 6.3 43.3
18:45 1022 30.18 851 25.13 14.1 57.4 61 6.7 44.1
18:50 1022 30.18 851 25.13 14 57.2 59 6.1 43.1
18:55 1022 30.18 851 25.13 13.9 57 60 6.4 43.6
19:00 1022 30.18 851 25.13 13.8 56.9 62 6.6 43.9
19:05 1022 30.18 851 25.13 13.7 56.7 62 6.6 43.9
19:10 1022 30.18 851 25.13 13.6 56.4 62 6.6 43.8
19:15 1022 30.18 851 25.13 13.5 56.3 61 6.2 43.2
19:20 1022 30.18 851 25.13 13.4 56.1 62 6.2 43.2
19:25 1022 30.18 851 25.13 13.3 55.9 64 6.6 43.9
19:30 1022 30.18 851 25.13 13.2 55.7 63 6.3 43.4
19:35 1022 30.18 851 25.13 13.1 55.6 65 6.8 44.2
19:40 1022 30.18 851 25.13 12.9 55.3 65 6.6 44
19:45 1022 30.18 851 25.13 12.8 55.1 65 6.4 43.6
19:50 1022 30.18 851 25.13 12.8 55 65 6.5 43.7
19:55 1022 30.18 851 25.13 12.6 54.8 66 6.6 43.9
20:00 1022 30.18 851 25.13 12.5 54.5 66 6.3 43.4
20:05 1022 30.18 851 25.13 12.5 54.5 65 6.2 43.1
20:10 1022 30.18 851 25.13 12.4 54.4 65 6 42.8
20:15 1022 30.18 851 25.13 12.3 54.2 66 6.1 43.1
20:20 1022 30.18 851 25.13 12.2 54 66 6 42.9
20:25 1022 30.18 851 25.13 12.1 53.8 67 6.1 43.1
20:30 1022 30.18 851 25.13 12 53.7 67 6.2 43.2
20:35 1022 30.18 852 25.16 11.9 53.5 69 6.4 43.5
20:40 1022 30.18 852 25.16 11.8 53.3 69 6.5 43.6
20:45 1022 30.18 852 25.16 11.7 53.1 70 6.5 43.7
20:50 1022 30.18 852 25.16 11.6 52.9 72 6.7 44.1
20:55 1023 30.21 852 25.16 11.5 52.6 73 6.8 44.2
21:00 1023 30.21 852 25.16 11.3 52.4 74 6.8 44.2
21:05 1023 30.21 852 25.16 11.3 52.4 74 6.9 44.4
21:10 1022 30.18 852 25.16 11.3 52.3 75 6.9 44.5
21:15 1022 30.18 852 25.16 11.3 52.4 74 6.8 44.3
21:20 1022 30.18 852 25.16 11.4 52.4 74 6.9 44.5
21:25 1023 30.21 852 25.16 11.3 52.4 73 6.7 44.1
21:30 1023 30.21 852 25.16 11.4 52.4 73 6.7 44.1
21:35 1023 30.21 852 25.16 11.3 52.4 72 6.5 43.8
21:40 1023 30.21 852 25.16 11.3 52.4 72 6.5 43.7
21:45 1023 30.21 852 25.16 11.3 52.3 73 6.6 43.9
21:50 1023 30.21 852 25.16 11.2 52.1 73 6.6 43.8
21:55 1023 30.21 852 25.16 11.2 52.1 74 6.7 44
22:00 1023 30.21 852 25.16 11.1 52 74 6.7 44.1
22:05 1023 30.21 852 25.16 11.1 51.9 75 6.8 44.2
22:10 1023 30.21 852 25.16 11.1 51.9 75 6.8 44.2
22:15 1023 30.21 852 25.16 11.1 52 74 6.7 44.1
22:20 1023 30.21 852 25.16 11.2 52.1 73 6.6 43.8
22:25 1022 30.18 852 25.16 11.2 52.2 72 6.5 43.7
22:30 1022 30.18 852 25.16 11.3 52.3 72 6.3 43.4
22:35 1022 30.18 851 25.13 11.3 52.3 71 6.2 43.1
22:40 1022 30.18 851 25.13 11.3 52.3 70 6 42.9
22:45 1022 30.18 851 25.13 11.2 52.2 71 6.1 43
22:50 1022 30.18 851 25.13 11.1 52 72 6.3 43.3
22:55 1022 30.18 851 25.13 11 51.8 73 6.3 43.4
23:00 1022 30.18 851 25.13 11 51.7 72 6.2 43.2
23:05 1022 30.18 852 25.16 11 51.8 73 6.3 43.4
23:10 1022 30.18 851 25.13 11 51.8 72 6.1 43
23:15 1022 30.18 852 25.16 11.1 51.9 72 6.3 43.3
23:20 1022 30.18 852 25.16 11 51.8 73 6.3 43.3
23:25 1022 30.18 852 25.16 10.9 51.7 73 6.2 43.2
23:30 1022 30.18 852 25.16 10.9 51.6 73 6.2 43.2
23:35 1022 30.18 852 25.16 10.9 51.7 72 6.1 43
23:40 1022 30.18 852 25.16 10.9 51.6 72 6.2 43.1
23:45 1022 30.18 852 25.16 10.9 51.5 72 6.1 42.9
23:50 1022 30.18 851 25.13 10.9 51.6 72 6.1 43
23:55 1022 30.18 851 25.13 10.9 51.6 72 6 42.7
24:00 1022 30.18 851 25.13 10.9 51.7 71 6 42.7